Time;durP1;ratioP1;P1;durP2;ratioP2;P2;SDS_P1;SDS_P2;PMS_P1;PMS_P2;Temp;Humidity;BMP_temperature;BMP_pressure;BME280_temperature;BME280_humidity;BME280_pressure;Samples;Min_cycle;Max_cycle;Signal;HPM_P1;HPM_P2
2022/06/18 00:04:33;;;;;;;3.92;2.40;;;;;;;22.49;43.50;96267.78;5050639;28;20205;-86
2022/06/18 00:07:01;;;;;;;3.65;2.40;;;;;;;22.50;43.51;96258.88;5051194;28;20198;-86
2022/06/18 00:09:31;;;;;;;2.90;2.35;;;;;;;22.54;43.42;96260.75;5052002;28;20584;-85
2022/06/18 00:15:13;;;;;;;5.97;2.47;;;;;;;22.47;43.15;96254.09;5051331;28;20200;-85
2022/06/18 00:17:42;;;;;;;3.17;2.25;;;;;;;22.39;43.37;96250.00;5051400;28;20238;-86
2022/06/18 00:20:24;;;;;;;3.50;2.33;;;;;;;22.36;43.39;96248.63;5050694;28;20204;-85
2022/06/18 00:22:54;;;;;;;1.83;1.73;;;;;;;22.39;43.27;96260.50;5051156;28;20240;-86
2022/06/18 00:25:22;;;;;;;2.28;2.10;;;;;;;22.38;43.52;96257.06;5051429;28;20193;-85
2022/06/18 00:27:49;;;;;;;2.40;2.20;;;;;;;22.39;43.25;96252.63;5050308;28;20559;-86
2022/06/18 00:30:31;;;;;;;5.13;2.20;;;;;;;22.46;43.01;96255.91;5050695;28;20200;-85
2022/06/18 00:32:59;;;;;;;2.20;2.10;;;;;;;22.36;43.53;96255.72;5044300;28;20304;-85
2022/06/18 00:35:26;;;;;;;2.17;2.08;;;;;;;22.34;43.53;96255.94;5051306;28;20280;-86
2022/06/18 00:38:12;;;;;;;2.30;2.10;;;;;;;22.41;43.29;96255.81;5051015;28;20206;-86
2022/06/18 00:40:41;;;;;;;2.63;2.15;;;;;;;22.37;43.85;96260.72;5050610;28;20193;-85
2022/06/18 00:43:25;;;;;;;;;;;;;;;;;;;;;
2022/06/18 00:45:55;;;;;;;2.50;2.03;;;;;;;22.33;43.88;96256.16;5051158;28;20193;-85
2022/06/18 00:48:28;;;;;;;2.80;2.15;;;;;;;22.35;43.81;96257.53;5051466;28;20217;-86
2022/06/18 00:51:15;;;;;;;3.22;2.28;;;;;;;22.30;44.36;96251.41;5050772;28;20198;-85
2022/06/18 00:53:45;;;;;;;2.20;2.05;;;;;;;22.32;44.21;96244.88;5050503;28;20229;-86
2022/06/18 00:56:32;;;;;;;2.40;2.20;;;;;;;22.25;43.82;96253.94;5051531;28;20224;-84
2022/06/18 00:59:01;;;;;;;3.17;2.10;;;;;;;22.18;43.85;96259.31;5051031;28;20593;-85
2022/06/18 01:04:25;;;;;;;2.20;2.10;;;;;;;22.20;44.66;96253.81;5049032;28;20265;-86
2022/06/18 01:07:07;;;;;;;3.67;2.22;;;;;;;22.13;45.15;96255.81;5050467;28;20224;-86
2022/06/18 01:09:36;;;;;;;2.60;2.40;;;;;;;22.06;44.98;96253.31;5030507;28;20214;-85
2022/06/18 01:12:04;;;;;;;2.58;2.30;;;;;;;22.08;44.91;96250.44;5040334;28;20198;-85
2022/06/18 01:14:46;;;;;;;2.50;2.30;;;;;;;22.09;44.83;96246.81;5050495;28;20198;-85
2022/06/18 01:17:13;;;;;;;2.50;2.30;;;;;;;22.12;44.58;96259.44;5049560;28;20193;-85
2022/06/18 01:19:46;;;;;;;4.18;2.22;;;;;;;22.11;44.73;96258.66;5084103;23;20229;-85
2022/06/18 01:22:35;;;;;;;2.55;2.35;;;;;;;22.04;44.99;96247.47;5041784;28;20235;-85
2022/06/18 01:25:07;;;;;;;4.78;2.10;;;;;;;22.04;45.04;96256.16;5060193;28;20296;-85
2022/06/18 01:30:10;;;;;;;2.83;2.40;;;;;;;21.98;45.26;96261.50;5055827;22;20262;-85
2022/06/18 01:32:38;;;;;;;2.90;2.30;;;;;;;21.96;45.02;96255.66;5018755;28;20230;-85
2022/06/18 01:35:06;;;;;;;2.22;2.08;;;;;;;21.98;44.84;96264.09;5029757;28;20210;-85
2022/06/18 01:40:15;;;;;;;2.20;2.10;;;;;;;21.95;44.75;96261.94;5090250;23;20248;-85
2022/06/18 01:42:45;;;;;;;2.30;2.08;;;;;;;21.92;44.96;96259.81;5021738;28;20305;-85
2022/06/18 01:45:33;;;;;;;2.10;2.00;;;;;;;21.85;44.85;96267.00;5029693;28;20764;-84
2022/06/18 01:48:05;;;;;;;3.40;2.00;;;;;;;21.81;44.97;96257.97;5041264;28;20217;-85
2022/06/18 01:50:48;;;;;;;3.35;2.17;;;;;;;21.71;45.30;96248.88;5029174;28;20209;-86
2022/06/18 01:53:20;;;;;;;3.40;2.25;;;;;;;21.68;45.56;96246.72;5018281;28;20601;-85
2022/06/18 01:56:13;;;;;;;2.58;2.22;;;;;;;21.67;45.65;96241.72;5046345;28;20194;-86
2022/06/18 02:01:32;;;;;;;2.45;2.22;;;;;;;21.68;45.04;96228.38;5026324;28;20333;-86
2022/06/18 02:04:02;;;;;;;2.05;1.92;;;;;;;21.65;45.18;96234.06;5046809;28;20225;-85
2022/06/18 02:06:47;;;;;;;2.33;2.22;;;;;;;21.56;45.56;96232.03;5049772;28;20208;-85
2022/06/18 02:09:37;;;;;;;2.40;2.15;;;;;;;21.52;46.30;96231.72;5049251;28;20225;-86
2022/06/18 02:12:08;;;;;;;2.20;2.10;;;;;;;21.52;45.84;96229.09;5034071;28;20626;-86
2022/06/18 02:14:39;;;;;;;2.60;2.40;;;;;;;21.48;45.96;96225.31;5015124;28;20212;-85
2022/06/18 02:17:18;;;;;;;2.30;2.10;;;;;;;21.47;45.79;96223.72;5029449;28;20202;-85
2022/06/18 02:19:49;;;;;;;3.67;2.20;;;;;;;21.45;46.20;96222.34;5029164;28;20233;-85
2022/06/18 02:22:16;;;;;;;5.43;2.20;;;;;;;21.40;46.08;96217.78;5027514;28;20241;-85
2022/06/18 02:24:45;;;;;;;2.38;2.22;;;;;;;21.35;46.24;96223.75;5029461;28;20230;-85
2022/06/18 02:27:25;;;;;;;2.40;2.20;;;;;;;21.30;46.57;96222.81;5029498;28;20194;-85
2022/06/18 02:29:54;;;;;;;2.95;2.30;;;;;;;21.26;46.85;96216.44;5029346;28;20218;-86
2022/06/18 02:32:42;;;;;;;2.55;2.35;;;;;;;21.18;47.43;96225.38;5028078;28;20238;-86
2022/06/18 02:35:12;;;;;;;2.90;2.40;;;;;;;21.07;47.55;96220.94;5029318;28;20198;-86
2022/06/18 02:37:40;;;;;;;3.55;2.55;;;;;;;21.04;47.85;96222.19;5028829;28;20289;-85
2022/06/18 02:40:25;;;;;;;2.45;2.25;;;;;;;21.08;47.41;96217.31;5028407;28;20238;-85
2022/06/18 02:42:55;;;;;;;2.53;2.20;;;;;;;21.06;47.43;96218.56;5028742;28;20249;-84
2022/06/18 02:45:25;;;;;;;2.63;2.20;;;;;;;21.07;47.65;96218.34;5029528;28;20294;-85
2022/06/18 02:48:05;;;;;;;2.30;2.10;;;;;;;21.12;47.56;96221.06;5028829;28;20194;-84
2022/06/18 02:50:34;;;;;;;2.45;2.30;;;;;;;21.10;47.53;96222.31;5028910;28;20197;-85
2022/06/18 02:53:02;;;;;;;2.92;2.17;;;;;;;21.11;47.17;96224.72;5028257;28;20732;-84
2022/06/18 02:55:46;;;;;;;3.15;2.30;;;;;;;21.02;48.20;96223.44;5029144;28;20729;-84
2022/06/18 02:58:18;;;;;;;2.70;2.30;;;;;;;20.91;48.17;96219.00;5022289;28;20214;-84
2022/06/18 03:03:31;;;;;;;3.10;2.40;;;;;;;20.94;47.99;96219.34;5010233;28;20233;-84
2022/06/18 03:05:58;;;;;;;5.00;2.30;;;;;;;20.88;48.59;96220.25;5028880;28;20561;-85
2022/06/18 03:08:27;;;;;;;2.97;2.78;;;;;;;20.83;48.11;96214.88;5029396;28;20314;-85
2022/06/18 03:14:04;;;;;;;3.33;2.20;;;;;;;20.86;47.89;96209.19;5008862;28;20382;-84
2022/06/18 03:16:31;;;;;;;2.28;2.13;;;;;;;20.75;48.17;96212.59;5026101;28;20630;-84
2022/06/18 03:18:59;;;;;;;2.42;2.22;;;;;;;20.85;47.51;96217.28;5028997;28;20226;-84
2022/06/18 03:21:41;;;;;;;4.53;2.45;;;;;;;20.88;47.30;96207.16;5028211;28;20214;-84
2022/06/18 03:24:09;;;;;;;3.17;2.42;;;;;;;20.88;47.61;96207.16;5028286;28;20604;-84
2022/06/18 03:26:36;;;;;;;3.42;2.22;;;;;;;20.97;47.20;96215.50;5028489;28;20214;-84
2022/06/18 03:29:06;;;;;;;3.38;2.08;;;;;;;20.99;47.08;96203.75;5028918;28;20219;-85
2022/06/18 03:31:50;;;;;;;2.60;2.40;;;;;;;20.95;47.55;96207.84;5028426;28;20210;-84
2022/06/18 03:34:17;;;;;;;2.80;2.08;;;;;;;20.91;47.70;96213.75;5052424;28;20244;-84
2022/06/18 03:36:44;;;;;;;2.80;2.50;;;;;;;20.93;47.45;96209.09;5052516;28;20672;-84
2022/06/18 03:39:25;;;;;;;3.25;2.20;;;;;;;20.95;47.57;96218.34;5052586;28;20231;-85
2022/06/18 03:41:55;;;;;;;2.45;2.25;;;;;;;21.00;47.03;96209.78;5050404;28;20668;-84
2022/06/18 03:44:25;;;;;;;4.03;2.38;;;;;;;21.06;47.04;96210.69;5032699;28;20230;-84
2022/06/18 03:47:06;;;;;;;2.20;2.10;;;;;;;21.07;47.19;96205.25;5032125;28;20581;-84
2022/06/18 03:49:35;;;;;;;2.83;2.20;;;;;;;21.03;47.02;96204.88;5009726;28;20226;-84
2022/06/18 03:52:05;;;;;;;2.55;2.03;;;;;;;20.99;46.82;96208.19;5022903;28;20225;-84
2022/06/18 03:54:49;;;;;;;2.00;1.90;;;;;;;20.91;47.07;96204.09;5051189;28;20194;-84
2022/06/18 03:57:18;;;;;;;3.10;2.30;;;;;;;20.84;47.29;96205.22;5052265;28;20785;-85
2022/06/18 03:59:49;;;;;;;2.28;2.08;;;;;;;20.87;47.77;96210.00;5051721;28;20222;-85
2022/06/18 04:02:25;;;;;;;2.88;2.30;;;;;;;20.99;47.15;96208.19;5050797;28;20229;-84
2022/06/18 04:04:51;;;;;;;2.72;2.10;;;;;;;21.04;47.07;96208.31;5051908;28;20203;-85
2022/06/18 04:07:22;;;;;;;4.05;2.28;;;;;;;21.09;46.84;96200.56;5051408;28;20669;-84
2022/06/18 04:10:01;;;;;;;;;;;;;;;;;;;;;
2022/06/18 04:12:28;;;;;;;3.40;2.13;;;;;;;21.11;46.86;96201.16;5050557;28;20230;-84
2022/06/18 04:14:55;;;;;;;2.05;1.85;;;;;;;21.12;46.93;96202.75;5051519;28;20194;-84
2022/06/18 04:17:22;;;;;;;2.45;2.25;;;;;;;21.19;46.90;96197.38;5051600;28;20189;-85
2022/06/18 04:19:49;;;;;;;2.80;2.15;;;;;;;21.20;46.98;96196.38;5070383;23;20641;-84
2022/06/18 04:22:34;;;;;;;3.05;2.00;;;;;;;21.21;46.73;96200.59;5072584;28;20228;-85
2022/06/18 04:25:00;;;;;;;2.30;2.10;;;;;;;21.17;47.16;96196.81;5084941;28;20703;-84
2022/06/18 04:27:27;;;;;;;2.65;2.05;;;;;;;21.24;46.88;96187.06;5088787;28;20200;-84
2022/06/18 04:32:37;;;;;;;2.03;1.92;;;;;;;21.26;46.77;96191.03;5042543;28;20217;-84
2022/06/18 04:35:05;;;;;;;3.67;2.03;;;;;;;21.26;46.65;96188.41;5061192;28;20189;-84
2022/06/18 04:37:32;;;;;;;2.00;1.90;;;;;;;21.28;47.56;96182.97;5053620;28;20235;-84
2022/06/18 04:42:41;;;;;;;2.40;2.20;;;;;;;21.34;46.56;96192.53;5046190;28;20608;-85
2022/06/18 04:45:10;;;;;;;5.90;2.60;;;;;;;21.45;46.28;96188.28;5069501;28;20205;-84
2022/06/18 04:47:37;;;;;;;2.30;2.10;;;;;;;21.54;46.42;96189.53;5051066;28;20198;-84
2022/06/18 04:50:18;;;;;;;3.65;2.15;;;;;;;21.60;46.11;96192.03;5103272;22;20762;-84
2022/06/18 04:52:45;;;;;;;2.10;2.00;;;;;;;21.75;46.04;96193.34;5024630;28;20233;-85
2022/06/18 04:55:11;;;;;;;5.15;2.30;;;;;;;21.81;46.11;96185.38;5049306;28;20201;-84
2022/06/18 04:57:38;;;;;;;3.33;2.45;;;;;;;21.91;46.02;96182.16;5034930;28;20190;-85
2022/06/18 05:00:22;;;;;;;2.10;1.98;;;;;;;21.95;46.19;96191.13;5050238;28;20236;-84
2022/06/18 05:02:48;;;;;;;2.55;2.20;;;;;;;21.97;45.98;96187.25;5034092;28;20237;-85
2022/06/18 05:05:28;;;;;;;;;;;;;;;;;;;;;
2022/06/18 05:07:58;;;;;;;2.83;2.38;;;;;;;22.02;45.88;96189.22;5050485;28;20201;-84
2022/06/18 05:10:25;;;;;;;2.25;2.05;;;;;;;22.05;45.96;96194.00;5038170;28;20213;-84
2022/06/18 05:12:51;;;;;;;3.13;2.30;;;;;;;22.16;45.51;96187.09;5030581;28;20240;-85
2022/06/18 05:15:19;;;;;;;2.50;2.15;;;;;;;22.22;45.46;96192.22;5045709;28;20199;-84
2022/06/18 05:18:05;;;;;;;2.83;2.17;;;;;;;22.29;45.72;96197.34;5031069;28;20202;-84
2022/06/18 05:20:31;;;;;;;2.75;2.35;;;;;;;22.38;45.49;96201.16;5042824;28;20217;-83
2022/06/18 05:22:58;;;;;;;2.50;2.10;;;;;;;22.47;45.45;96207.63;5040923;28;20238;-84
2022/06/18 05:25:25;;;;;;;2.83;2.30;;;;;;;22.43;45.09;96193.38;5043893;28;20213;-84
2022/06/18 05:28:03;;;;;;;4.28;2.20;;;;;;;22.48;45.24;96203.97;5030975;28;20214;-84
2022/06/18 05:30:30;;;;;;;2.30;2.10;;;;;;;22.65;45.00;96204.00;5034537;28;20186;-83
2022/06/18 05:32:57;;;;;;;2.95;2.20;;;;;;;22.74;44.99;96198.13;5050269;28;20236;-84
2022/06/18 05:35:44;;;;;;;4.47;2.10;;;;;;;22.83;44.92;96197.75;5049160;28;20202;-84
2022/06/18 05:38:24;;;;;;;2.45;2.20;;;;;;;22.94;44.82;96200.31;5050706;28;20697;-84
2022/06/18 05:41:02;;;;;;;2.33;2.10;;;;;;;22.98;44.01;96198.00;5039883;28;20213;-84
2022/06/18 05:43:28;;;;;;;2.20;2.08;;;;;;;23.07;44.17;96200.00;5050007;28;20232;-84
2022/06/18 05:46:24;;;;;;;2.33;2.10;;;;;;;23.01;43.55;96202.78;5032268;28;20201;-84
2022/06/18 05:49:27;;;;;;;;;;;;;;;;;;;;;
2022/06/18 05:55:42;;;;;;;;;;;;;;;;;;;;;
2022/06/18 05:58:21;;;;;;;;;;;;;;;;;;;;;
2022/06/18 06:01:13;;;;;;;2.42;1.88;;;;;;;23.40;42.89;96203.63;4896325;28;20991;-83
2022/06/18 06:06:28;;;;;;;3.75;2.20;;;;;;;23.43;42.69;96200.50;5030044;28;20261;-85
2022/06/18 06:08:56;;;;;;;2.88;1.98;;;;;;;23.53;43.79;96203.28;5031261;28;20602;-85
2022/06/18 06:17:44;;;;;;;2.30;2.10;;;;;;;23.98;42.74;96191.75;4937426;28;20203;-85
2022/06/18 06:20:36;;;;;;;3.00;2.20;;;;;;;24.11;42.98;96194.78;5040551;28;20226;-84
2022/06/18 06:23:02;;;;;;;2.10;1.90;;;;;;;24.23;42.63;96189.41;5017222;28;20241;-85
2022/06/18 06:25:29;;;;;;;2.38;2.00;;;;;;;24.30;42.89;96187.38;5036889;28;20757;-84
2022/06/18 06:31:21;;;;;;;2.20;2.00;;;;;;;24.45;42.39;96194.63;5025375;28;20209;-84
2022/06/18 06:47:23;;;;;;;1.73;1.63;;;;;;;24.55;40.28;96192.13;4874400;29;20222;-85
2022/06/18 06:49:49;;;;;;;2.33;2.13;;;;;;;24.61;40.72;96188.50;4902765;29;20305;-84
2022/06/18 06:52:37;;;;;;;2.22;2.08;;;;;;;24.66;40.04;96183.25;4930670;28;20251;-84
2022/06/18 06:58:24;;;;;;;2.65;1.75;;;;;;;24.73;39.48;96186.47;4929740;29;20240;-85
2022/06/18 07:00:59;;;;;;;1.88;1.77;;;;;;;24.74;39.19;96182.81;4950614;28;20226;-85
2022/06/18 07:03:40;;;;;;;2.00;1.90;;;;;;;24.67;39.20;96187.47;4982062;28;20273;-85
2022/06/18 07:06:08;;;;;;;2.83;2.10;;;;;;;24.71;39.47;96190.41;4967413;28;20286;-84
2022/06/18 07:08:41;;;;;;;3.47;2.08;;;;;;;24.84;40.11;96179.44;4996123;28;20292;-85
2022/06/18 07:11:24;;;;;;;2.08;1.90;;;;;;;24.97;40.12;96181.69;5031522;28;20198;-85
2022/06/18 07:13:50;;;;;;;2.47;1.95;;;;;;;25.08;40.50;96179.91;5034581;28;20227;-83
2022/06/18 07:16:17;;;;;;;2.22;1.98;;;;;;;25.19;40.66;96173.69;5037649;28;20198;-85
2022/06/18 07:18:44;;;;;;;3.38;1.63;;;;;;;25.31;40.23;96170.84;5041931;28;20245;-85
2022/06/18 07:21:32;;;;;;;3.65;1.85;;;;;;;25.39;40.02;96167.72;5036194;28;20229;-83
2022/06/18 07:23:59;;;;;;;2.28;1.80;;;;;;;25.48;39.68;96161.72;5015287;28;20226;-83
2022/06/18 07:26:53;;;;;;;2.70;1.90;;;;;;;25.56;39.38;96163.06;5012872;28;20199;-84
2022/06/18 07:29:20;;;;;;;3.53;1.95;;;;;;;25.59;39.78;96161.78;5023895;28;20226;-85
2022/06/18 07:32:12;;;;;;;3.88;2.05;;;;;;;25.69;39.89;96152.06;5011005;28;20206;-83
2022/06/18 07:34:42;;;;;;;3.17;1.90;;;;;;;25.77;39.78;96151.59;5025985;28;20232;-85
2022/06/18 07:37:31;;;;;;;3.17;2.10;;;;;;;25.85;38.85;96144.22;5026173;28;20190;-85
2022/06/18 07:40:00;;;;;;;4.47;2.08;;;;;;;25.93;38.57;96143.72;5011491;28;20214;-83
2022/06/18 07:42:48;;;;;;;5.07;2.10;;;;;;;26.04;39.70;96143.47;5010848;28;20222;-84
2022/06/18 07:45:17;;;;;;;2.55;1.98;;;;;;;26.17;39.38;96144.06;5004305;28;20203;-84
2022/06/18 07:48:01;;;;;;;2.53;2.00;;;;;;;26.28;38.37;96137.72;4996048;28;20281;-84
2022/06/18 07:50:29;;;;;;;2.83;1.85;;;;;;;26.34;35.91;96129.59;5022105;28;20229;-84
2022/06/18 07:52:56;;;;;;;1.55;1.45;;;;;;;26.51;35.89;96136.47;5024558;28;20222;-84
2022/06/18 08:02:01;;;;;;;;;;;;;;;;;;;;;
2022/06/18 08:04:31;;;;;;;1.88;1.50;;;;;;;26.96;34.25;96122.44;4958822;28;20222;-85
2022/06/18 08:06:58;;;;;;;1.48;1.38;;;;;;;26.98;32.73;96120.34;4990844;28;20627;-83
2022/06/18 08:09:29;;;;;;;1.40;1.30;;;;;;;27.01;31.83;96127.72;4992000;28;20211;-85
2022/06/18 08:14:37;;;;;;;1.70;1.60;;;;;;;27.23;32.58;96122.13;4936322;28;20878;-84
2022/06/18 08:17:09;;;;;;;2.35;1.38;;;;;;;27.33;30.63;96119.44;4978270;28;20214;-85
2022/06/18 08:19:49;;;;;;;1.40;1.30;;;;;;;27.47;32.66;96113.34;4991519;28;20350;-87
2022/06/18 08:22:55;;;;;;;3.75;1.35;;;;;;;27.55;30.99;96109.31;4995671;28;20246;-87
2022/06/18 08:28:45;;;;;;;3.72;1.40;;;;;;;27.77;32.48;96101.84;4898137;29;20245;-83
2022/06/18 08:31:13;;;;;;;1.30;1.30;;;;;;;27.91;32.27;96103.88;4986842;28;20218;-84
2022/06/18 08:33:43;;;;;;;1.50;1.40;;;;;;;27.97;32.69;96103.59;4993220;28;20322;-84
2022/06/18 08:36:15;;;;;;;1.73;1.55;;;;;;;28.12;32.05;96103.50;4993513;28;20630;-85
2022/06/18 08:38:44;;;;;;;1.80;1.50;;;;;;;28.25;32.93;96104.78;4994195;28;20696;-84
2022/06/18 08:41:33;;;;;;;2.22;1.80;;;;;;;28.42;33.09;96099.09;4993550;28;20223;-83
2022/06/18 08:44:35;;;;;;;3.53;1.50;;;;;;;28.64;32.86;96110.06;4989894;28;20227;-84
2022/06/18 08:47:10;;;;;;;3.10;1.55;;;;;;;28.72;32.06;96092.75;4993694;28;20203;-84
2022/06/18 08:50:09;;;;;;;2.17;1.50;;;;;;;28.69;32.31;96096.72;4988574;28;20269;-83
2022/06/18 08:53:26;;;;;;;1.75;1.60;;;;;;;28.85;33.13;96098.22;4990908;28;20837;-84
2022/06/18 08:55:58;;;;;;;1.63;1.52;;;;;;;29.01;32.19;96101.53;4896840;29;20218;-83
2022/06/18 08:58:32;;;;;;;3.45;1.50;;;;;;;29.09;31.75;96103.53;4906088;29;20310;-84
2022/06/18 09:01:11;;;;;;;1.48;1.38;;;;;;;29.08;31.16;96098.53;4961532;28;20235;-85
2022/06/18 09:04:12;;;;;;;1.60;1.38;;;;;;;29.08;29.43;96095.88;4994164;28;20226;-84
2022/06/18 09:07:14;;;;;;;1.33;1.23;;;;;;;29.12;28.86;96092.38;4993281;28;20261;-84
2022/06/18 09:10:00;;;;;;;1.90;1.38;;;;;;;29.21;28.63;96087.25;4992195;28;20233;-84
2022/06/18 09:12:38;;;;;;;1.27;1.20;;;;;;;29.35;28.31;96090.00;4990013;28;20721;-83
2022/06/18 09:15:14;;;;;;;0.90;0.90;;;;;;;29.30;27.22;96082.09;4991849;28;20291;-84
2022/06/18 09:17:43;;;;;;;3.33;1.30;;;;;;;29.44;28.12;96086.47;4993278;28;20233;-84
2022/06/18 09:20:12;;;;;;;1.50;1.30;;;;;;;29.59;28.28;96085.50;4993228;28;20231;-83
2022/06/18 09:22:45;;;;;;;1.52;1.42;;;;;;;29.69;27.71;96080.06;4991388;28;20286;-83
2022/06/18 09:25:30;;;;;;;1.60;1.50;;;;;;;29.80;27.89;96081.50;4992259;28;20924;-84
2022/06/18 09:28:03;;;;;;;2.70;1.50;;;;;;;29.93;27.05;96084.53;4992146;28;20235;-85
2022/06/18 09:30:44;;;;;;;1.45;1.40;;;;;;;30.10;27.21;96087.50;4989659;28;20242;-86
2022/06/18 09:33:15;;;;;;;1.70;1.60;;;;;;;30.27;26.94;96085.09;4989255;28;20780;-84
2022/06/18 09:36:01;;;;;;;1.83;1.23;;;;;;;30.35;26.25;96089.78;4991585;28;20199;-82
2022/06/18 09:38:34;;;;;;;1.60;1.45;;;;;;;30.34;26.34;96088.19;4990918;28;20231;-84
2022/06/18 09:41:05;;;;;;;2.78;1.60;;;;;;;30.52;26.83;96086.59;4989568;28;20219;-83
2022/06/18 09:43:43;;;;;;;1.48;1.38;;;;;;;30.53;27.04;96085.50;4992136;28;20769;-84
2022/06/18 09:46:15;;;;;;;3.03;1.58;;;;;;;30.60;26.74;96087.81;4992845;28;20191;-84
2022/06/18 09:48:43;;;;;;;1.60;1.30;;;;;;;30.52;26.65;96092.69;4992373;28;20226;-85
2022/06/18 09:51:26;;;;;;;2.00;1.70;;;;;;;30.71;27.31;96082.03;4990284;28;20199;-86
2022/06/18 09:53:57;;;;;;;1.70;1.60;;;;;;;30.71;26.26;96084.69;4980691;28;20227;-83
2022/06/18 09:56:38;;;;;;;1.70;1.60;;;;;;;30.78;25.28;96074.47;4991009;28;20269;-85
2022/06/18 09:59:12;;;;;;;2.17;1.73;;;;;;;30.92;26.29;96077.16;4990543;28;20325;-85
2022/06/18 10:01:43;;;;;;;5.88;1.75;;;;;;;31.06;26.70;96066.50;4989844;28;20211;-85
2022/06/18 10:07:18;;;;;;;2.38;1.52;;;;;;;31.20;26.23;96067.31;4991139;28;20233;-84
2022/06/18 10:09:49;;;;;;;1.98;1.40;;;;;;;31.19;25.99;96069.19;4990785;28;20297;-84
2022/06/18 10:12:20;;;;;;;2.90;1.50;;;;;;;31.35;26.19;96068.94;4988656;28;20235;-85
2022/06/18 10:15:09;;;;;;;2.58;1.60;;;;;;;31.62;25.72;96063.56;4990513;28;20207;-84
2022/06/18 10:20:28;;;;;;;2.17;1.52;;;;;;;31.90;26.12;96049.13;4998815;23;20262;-84
2022/06/18 10:23:12;;;;;;;2.65;1.50;;;;;;;31.85;24.60;96048.44;5010018;28;20604;-84
2022/06/18 10:25:48;;;;;;;3.38;1.70;;;;;;;31.87;25.40;96041.72;4990553;28;20207;-85
2022/06/18 10:28:32;;;;;;;1.70;1.60;;;;;;;32.03;25.64;96047.50;4990931;28;20226;-84
2022/06/18 10:31:05;;;;;;;1.60;1.50;;;;;;;32.03;25.36;96036.84;4980474;28;20199;-85
2022/06/18 10:33:49;;;;;;;2.83;1.67;;;;;;;31.98;25.10;96038.81;4990034;28;20223;-84
2022/06/18 10:36:23;;;;;;;1.65;1.55;;;;;;;32.00;25.09;96041.97;4990881;28;20203;-88
2022/06/18 10:39:12;;;;;;;2.88;1.67;;;;;;;31.99;24.05;96037.75;4991086;28;20227;-83
2022/06/18 10:41:48;;;;;;;1.60;1.50;;;;;;;32.07;24.87;96031.69;4975440;28;20247;-86
2022/06/18 10:44:28;;;;;;;2.63;1.60;;;;;;;31.83;23.45;96032.75;4985706;28;20227;-84
2022/06/18 10:47:04;;;;;;;1.63;1.52;;;;;;;31.82;24.42;96033.06;4993125;28;20207;-84
2022/06/18 10:49:31;;;;;;;1.85;1.75;;;;;;;32.02;25.84;96032.59;4984888;28;20266;-83
2022/06/18 10:52:05;;;;;;;1.60;1.50;;;;;;;32.19;24.35;96023.94;4992359;28;20258;-85
2022/06/18 10:54:34;;;;;;;1.67;1.33;;;;;;;32.37;23.86;96025.66;4994035;28;20192;-84
2022/06/18 10:57:03;;;;;;;2.42;1.90;;;;;;;32.47;23.68;96027.28;4991931;28;20200;-84
2022/06/18 10:59:33;;;;;;;2.90;1.60;;;;;;;32.48;23.80;96027.00;4991426;28;20231;-83
2022/06/18 11:02:17;;;;;;;2.00;1.50;;;;;;;32.41;24.34;96015.97;4989561;28;20239;-84
2022/06/18 11:04:53;;;;;;;1.80;1.70;;;;;;;32.45;25.21;96019.59;4990912;28;20195;-83
2022/06/18 11:07:31;;;;;;;3.55;1.77;;;;;;;32.44;24.29;96014.56;4972398;28;20208;-84
2022/06/18 11:10:00;;;;;;;2.88;1.63;;;;;;;32.52;24.85;96014.59;4975169;28;20219;-84
2022/06/18 11:12:31;;;;;;;1.83;1.63;;;;;;;32.62;24.29;96021.56;4991948;28;20231;-84
2022/06/18 11:15:12;;;;;;;4.32;1.80;;;;;;;32.61;24.55;96018.13;4989815;28;20200;-84
2022/06/18 11:17:44;;;;;;;2.85;1.58;;;;;;;32.66;24.70;96021.75;4990942;28;20203;-84
2022/06/18 11:20:22;;;;;;;2.03;1.80;;;;;;;32.48;22.72;96020.88;4986426;28;20235;-83
2022/06/18 11:22:53;;;;;;;2.50;1.70;;;;;;;32.64;23.62;96015.94;4977603;28;20318;-85
2022/06/18 11:25:35;;;;;;;1.90;1.80;;;;;;;32.67;23.79;95999.31;4988751;28;20207;-86
2022/06/18 11:28:15;;;;;;;1.80;1.70;;;;;;;32.58;24.89;96002.72;4989946;28;20215;-85
2022/06/18 11:30:46;;;;;;;4.03;1.65;;;;;;;32.60;24.68;96002.41;4991370;28;20207;-84
2022/06/18 11:33:34;;;;;;;2.35;1.92;;;;;;;32.72;24.42;95994.63;4984740;28;20231;-84
2022/06/18 11:36:08;;;;;;;2.78;1.70;;;;;;;32.86;24.61;95989.22;4971119;28;20208;-84
2022/06/18 11:38:45;;;;;;;;;;;;;;;;;;;;;
2022/06/18 11:41:18;;;;;;;4.70;2.00;;;;;;;33.16;24.85;95990.25;4981579;28;20201;-84
2022/06/18 11:46:37;;;;;;;2.00;1.80;;;;;;;33.10;23.33;95986.94;4987689;28;20199;-84
2022/06/18 11:49:12;;;;;;;2.13;1.92;;;;;;;33.07;23.83;95976.09;4989530;28;20235;-84
2022/06/18 11:51:55;;;;;;;3.00;1.90;;;;;;;33.13;23.87;95982.84;4988282;28;20230;-85
2022/06/18 11:54:27;;;;;;;2.53;1.80;;;;;;;33.22;24.14;95975.66;4990725;28;20215;-85
2022/06/18 11:57:12;;;;;;;3.22;1.80;;;;;;;33.33;24.16;95982.28;4992353;28;20298;-86
2022/06/18 11:59:52;;;;;;;3.47;2.00;;;;;;;33.21;24.68;95972.22;4988855;28;20239;-84
2022/06/18 12:02:35;;;;;;;2.05;1.85;;;;;;;33.32;25.59;95972.72;4983652;28;20242;-85
2022/06/18 12:05:06;;;;;;;2.88;1.92;;;;;;;33.41;24.06;95970.84;4992745;28;20667;-86
2022/06/18 12:07:45;;;;;;;2.85;2.00;;;;;;;33.48;24.19;95955.16;4991562;28;20204;-86
2022/06/18 12:10:14;;;;;;;4.82;2.10;;;;;;;33.53;24.91;95957.66;4991854;28;20227;-86
2022/06/18 12:13:04;;;;;;;3.55;2.20;;;;;;;33.60;25.39;95958.00;4988169;28;20224;-84
2022/06/18 12:15:39;;;;;;;4.15;2.30;;;;;;;33.74;25.42;95954.34;4991005;28;20282;-85
2022/06/18 12:18:14;;;;;;;2.45;2.20;;;;;;;33.71;24.73;95952.31;4983688;28;20203;-84
2022/06/18 12:20:54;;;;;;;3.42;2.13;;;;;;;33.67;24.44;95946.06;4980715;28;20238;-84
2022/06/18 12:23:27;;;;;;;11.10;2.50;;;;;;;33.67;24.96;95954.06;4983315;28;20231;-84
2022/06/18 12:26:01;;;;;;;4.45;2.30;;;;;;;33.67;24.40;95941.50;4991486;28;20192;-84
2022/06/18 12:28:40;;;;;;;3.03;2.08;;;;;;;33.77;24.54;95945.72;4991831;28;20229;-84
2022/06/18 12:31:13;;;;;;;4.07;2.30;;;;;;;33.85;24.20;95942.31;4990034;28;20192;-84
2022/06/18 12:33:45;;;;;;;9.52;5.72;;;;;;;33.86;24.92;95938.53;4958831;28;20224;-84
2022/06/18 12:36:16;;;;;;;7.15;3.25;;;;;;;33.85;24.02;95940.41;4973425;28;20193;-84
2022/06/18 12:38:55;;;;;;;6.32;3.08;;;;;;;33.84;23.92;95940.72;4976366;28;20215;-84
2022/06/18 12:41:38;;;;;;;10.10;4.60;;;;;;;33.78;24.67;95939.31;4981920;28;20297;-85
2022/06/18 12:44:14;;;;;;;6.60;2.63;;;;;;;33.66;23.24;95923.91;4991966;28;20243;-84
2022/06/18 12:46:50;;;;;;;10.82;3.05;;;;;;;33.65;23.32;95918.88;4991912;28;20278;-84
2022/06/18 12:49:24;;;;;;;7.40;2.92;;;;;;;33.67;25.13;95925.47;4992236;28;20267;-85
2022/06/18 12:51:58;;;;;;;10.25;3.28;;;;;;;33.81;24.88;95914.63;4991782;28;20571;-84
2022/06/18 12:54:40;;;;;;;5.78;2.97;;;;;;;33.91;23.77;95923.09;4992407;28;20667;-84
2022/06/18 12:57:17;;;;;;;6.43;3.15;;;;;;;33.96;24.26;95922.16;4992962;28;20207;-84
2022/06/18 12:59:52;;;;;;;7.05;2.72;;;;;;;34.04;24.22;95917.91;4992248;28;20651;-84
2022/06/18 13:02:36;;;;;;;5.07;2.45;;;;;;;34.00;24.41;95908.94;4990152;28;20231;-84
2022/06/18 13:05:15;;;;;;;3.67;2.53;;;;;;;34.00;24.66;95908.94;4991401;28;20204;-84
2022/06/18 13:07:50;;;;;;;5.93;2.80;;;;;;;34.00;24.60;95911.63;4990520;28;20226;-83
2022/06/18 13:10:26;;;;;;;4.57;2.53;;;;;;;33.96;23.65;95898.88;4981515;28;20770;-84
2022/06/18 13:13:18;;;;;;;9.38;3.33;;;;;;;33.93;24.47;95891.50;4972217;28;20322;-84
2022/06/18 13:15:48;;;;;;;6.03;2.38;;;;;;;34.00;24.93;95890.22;4978629;28;20196;-84
2022/06/18 13:18:24;;;;;;;9.18;2.90;;;;;;;34.00;23.93;95885.66;4974949;28;20275;-84
2022/06/18 13:20:53;;;;;;;7.25;2.78;;;;;;;33.99;24.24;95875.31;4986103;28;20199;-84
2022/06/18 13:29:00;;;;;;;5.82;2.78;;;;;;;34.01;24.44;95875.78;4972367;28;20227;-82
2022/06/18 13:31:39;;;;;;;6.78;2.60;;;;;;;33.95;23.83;95864.47;4991750;28;20229;-84
2022/06/18 13:34:14;;;;;;;7.30;2.65;;;;;;;33.94;24.40;95865.56;4990327;28;20257;-85
2022/06/18 13:36:51;;;;;;;6.28;2.42;;;;;;;33.96;24.87;95863.34;4991731;28;20203;-84
2022/06/18 13:39:25;;;;;;;7.35;2.92;;;;;;;33.79;23.15;95856.16;4990135;28;20311;-85
2022/06/18 13:42:09;;;;;;;7.57;2.65;;;;;;;33.80;24.41;95848.94;4990179;28;20293;-86
2022/06/18 13:44:47;;;;;;;6.10;3.63;;;;;;;33.81;23.96;95843.28;4984709;28;20294;-85
2022/06/18 13:47:28;;;;;;;5.18;2.70;;;;;;;33.87;23.74;95849.22;4990461;28;20644;-85
2022/06/18 13:50:07;;;;;;;7.18;3.20;;;;;;;33.95;24.10;95840.41;4990494;28;20871;-86